createdAt,value
2022-09-12T00:03:13.074Z,72.83
2022-09-12T00:08:20.300Z,73.09
2022-09-12T00:13:23.795Z,73.02
2022-09-12T00:18:27.779Z,73.18
2022-09-12T00:23:32.983Z,73.03
2022-09-12T00:28:38.367Z,73.15
2022-09-12T00:33:42.012Z,73.04
2022-09-12T00:38:46.722Z,73.30
2022-09-12T00:44:15.010Z,73.18
2022-09-12T00:49:35.575Z,73.29
2022-09-12T00:54:50.571Z,73.22
2022-09-12T01:00:03.033Z,73.43
2022-09-12T01:05:08.638Z,73.39
2022-09-12T01:10:13.418Z,73.56
2022-09-12T01:15:19.713Z,73.49
2022-09-12T01:20:26.166Z,73.72
2022-09-12T01:26:09.201Z,73.48
2022-09-12T01:31:24.844Z,73.51
2022-09-12T01:36:47.799Z,73.65
2022-09-12T01:42:12.401Z,73.73
2022-09-12T01:47:28.286Z,73.74
2022-09-12T01:52:46.132Z,73.62
2022-09-12T01:58:03.707Z,73.62
2022-09-12T02:03:16.950Z,73.61
2022-09-12T02:08:31.734Z,73.62
2022-09-12T02:13:42.012Z,73.91
2022-09-12T02:18:53.410Z,73.87
2022-09-12T02:24:01.803Z,73.71
2022-09-12T02:29:05.552Z,73.67
2022-09-12T02:34:10.896Z,73.64
2022-09-12T02:39:14.235Z,73.70
2022-09-12T02:44:18.221Z,73.61
2022-09-12T02:49:22.383Z,73.50
2022-09-12T02:54:25.910Z,73.57
2022-09-12T02:59:29.363Z,73.63
2022-09-12T03:04:41.811Z,73.41
2022-09-12T03:10:03.234Z,73.36
2022-09-12T03:15:40.475Z,73.49
2022-09-12T03:20:49.423Z,73.44
2022-09-12T03:26:09.821Z,73.27
2022-09-12T03:31:16.542Z,73.36
2022-09-12T03:36:30.491Z,73.45
2022-09-12T03:41:34.288Z,73.46
2022-09-12T03:46:37.677Z,73.44
2022-09-12T03:51:41.326Z,73.37
2022-09-12T03:56:44.847Z,73.46
2022-09-12T04:01:47.970Z,73.39
2022-09-12T04:06:50.993Z,73.32
2022-09-12T04:11:54.285Z,73.35
2022-09-12T04:16:57.543Z,73.35
2022-09-12T04:22:00.810Z,73.11
2022-09-12T04:27:07.682Z,73.12
2022-09-12T04:32:11.178Z,73.13
2022-09-12T04:37:14.574Z,73.16
2022-09-12T04:42:18.133Z,73.09
2022-09-12T04:47:21.220Z,72.94
2022-09-12T04:52:24.585Z,72.68
2022-09-12T04:57:30.099Z,71.45
2022-09-12T05:02:34.568Z,65.50
2022-09-12T05:07:38.223Z,60.89
2022-09-12T05:12:41.727Z,61.79
2022-09-12T05:17:45.582Z,62.18
2022-09-12T05:22:48.992Z,62.35
2022-09-12T05:27:54.981Z,63.43
2022-09-12T05:32:58.188Z,64.81
2022-09-12T05:38:01.747Z,65.27
2022-09-12T05:43:05.409Z,66.03
2022-09-12T05:48:09.311Z,66.20
2022-09-12T05:53:12.670Z,66.93
2022-09-12T05:58:16.600Z,67.03
2022-09-12T06:03:20.189Z,66.54
2022-09-12T06:08:25.170Z,66.74
2022-09-12T06:13:36.561Z,67.15
2022-09-12T06:18:40.936Z,66.96
2022-09-12T06:23:45.204Z,66.79
2022-09-12T06:28:48.718Z,66.55
2022-09-12T06:33:54.736Z,66.70
2022-09-12T06:39:04.245Z,66.34
2022-09-12T06:44:12.663Z,66.44
2022-09-12T06:49:15.974Z,65.95
2022-09-12T06:54:19.109Z,65.98
2022-09-12T06:59:22.387Z,65.69
2022-09-12T07:04:30.063Z,65.89
2022-09-12T07:09:33.839Z,65.47
2022-09-12T07:14:37.258Z,65.51
2022-09-12T07:19:41.048Z,65.42
2022-09-12T07:24:44.654Z,65.29
2022-09-12T07:29:48.061Z,64.83
2022-09-12T07:34:51.660Z,64.56
2022-09-12T07:39:55.164Z,64.51
2022-09-12T07:44:59.334Z,63.98
2022-09-12T07:50:04.447Z,63.76
2022-09-12T07:55:09.610Z,63.56
2022-09-12T08:00:15.253Z,63.01
2022-09-12T08:05:20.823Z,62.77
2022-09-12T08:10:25.245Z,62.37
2022-09-12T08:15:28.705Z,62.01
2022-09-12T08:20:32.396Z,61.49
2022-09-12T08:25:35.813Z,61.12
2022-09-12T08:30:39.325Z,61.15
2022-09-12T08:35:43.192Z,61.04
2022-09-12T08:41:04.354Z,60.84
2022-09-12T08:46:23.092Z,60.66
2022-09-12T08:51:27.867Z,60.85
2022-09-12T08:56:36.630Z,60.34
2022-09-12T09:01:46.070Z,60.60
2022-09-12T09:07:14.135Z,61.15
2022-09-12T09:12:35.193Z,60.84
2022-09-12T09:18:01.866Z,60.40
2022-09-12T09:23:13.195Z,60.45
2022-09-12T09:28:23.284Z,60.42
2022-09-12T09:33:34.058Z,60.46
2022-09-12T09:39:01.750Z,60.22
2022-09-12T09:44:05.740Z,60.02
2022-09-12T09:49:14.228Z,60.18
2022-09-12T09:54:24.950Z,59.97
2022-09-12T09:59:30.612Z,59.99
2022-09-12T10:04:41.434Z,60.28
2022-09-12T10:10:13.792Z,60.14
2022-09-12T10:15:18.816Z,60.29
2022-09-12T10:20:37.804Z,60.17
2022-09-12T10:25:41.508Z,60.13
2022-09-12T10:30:53.304Z,60.17
2022-09-12T10:35:56.943Z,60.20
2022-09-12T10:41:05.676Z,60.04
2022-09-12T10:46:15.167Z,60.07
2022-09-12T10:51:24.542Z,60.40
2022-09-12T10:56:44.352Z,60.40
2022-09-12T11:02:16.295Z,60.56
2022-09-12T11:07:42.406Z,60.62
2022-09-12T11:13:23.361Z,60.75
2022-09-12T11:18:45.576Z,60.67
2022-09-12T11:24:23.050Z,60.77
2022-09-12T11:29:40.706Z,60.84
2022-09-12T11:35:18.336Z,60.72
2022-09-12T11:40:27.940Z,60.80
2022-09-12T11:45:41.424Z,60.77
2022-09-12T11:50:44.554Z,60.74
2022-09-12T11:56:14.803Z,60.67
2022-09-12T12:01:28.251Z,60.97
2022-09-12T12:06:37.576Z,60.89
2022-09-12T12:11:48.985Z,61.19
2022-09-12T12:16:53.116Z,60.99
2022-09-12T12:22:24.318Z,60.96
2022-09-12T12:27:48.215Z,61.43
2022-09-12T12:32:51.550Z,61.47
2022-09-12T12:37:56.696Z,61.44
2022-09-12T12:43:05.346Z,61.53
2022-09-12T12:48:14.472Z,61.59
2022-09-12T12:53:25.611Z,61.51
2022-09-12T12:58:36.776Z,61.55
2022-09-12T13:04:06.397Z,61.95
2022-09-12T13:09:31.373Z,61.98
2022-09-12T13:14:47.167Z,62.11
2022-09-12T13:20:10.602Z,62.21
2022-09-12T13:25:19.786Z,62.72
2022-09-12T13:30:23.144Z,62.75
2022-09-12T13:35:59.626Z,62.62
2022-09-12T13:41:18.362Z,62.75
2022-09-12T13:46:31.842Z,63.00
2022-09-12T13:51:35.673Z,63.44
2022-09-12T13:56:47.904Z,63.71
2022-09-12T14:01:51.375Z,63.87
2022-09-12T14:06:55.605Z,64.06
2022-09-12T14:11:59.736Z,64.27
2022-09-12T14:17:18.979Z,64.10
2022-09-12T14:22:27.444Z,64.76
2022-09-12T14:27:42.787Z,64.26
2022-09-12T14:33:10.244Z,64.32
2022-09-12T14:38:16.996Z,64.15
2022-09-12T14:43:35.033Z,64.30
2022-09-12T14:48:44.901Z,64.34
2022-09-12T14:53:49.393Z,64.75
2022-09-12T14:59:30.995Z,64.77
2022-09-12T15:04:40.969Z,64.84
2022-09-12T15:09:47.347Z,64.93
2022-09-12T15:14:52.023Z,65.37
2022-09-12T15:19:58.483Z,65.55
2022-09-12T15:25:01.923Z,65.72
2022-09-12T15:30:07.063Z,66.05
2022-09-12T15:35:18.601Z,66.10
2022-09-12T15:40:22.177Z,66.26
2022-09-12T15:45:28.335Z,66.55
2022-09-12T15:50:33.000Z,66.94
2022-09-12T15:55:36.634Z,67.61
2022-09-12T16:00:39.913Z,67.53
2022-09-12T16:05:43.319Z,67.60
2022-09-12T16:10:49.784Z,67.59
2022-09-12T16:15:57.631Z,67.74
2022-09-12T16:21:00.983Z,67.90
2022-09-12T16:26:06.414Z,67.55
2022-09-12T16:31:13.687Z,67.95
2022-09-12T16:36:19.584Z,67.64
2022-09-12T16:41:24.650Z,68.01
2022-09-12T16:46:28.611Z,68.19
2022-09-12T16:51:34.460Z,68.41
2022-09-12T16:56:37.747Z,68.39
2022-09-12T17:01:41.620Z,68.19
2022-09-12T17:06:45.669Z,68.45
2022-09-12T17:11:49.264Z,68.79
2022-09-12T17:16:52.618Z,68.89
2022-09-12T17:21:56.929Z,68.47
2022-09-12T17:27:00.864Z,68.77
2022-09-12T17:32:06.284Z,69.00
2022-09-12T17:37:13.916Z,68.95
2022-09-12T17:42:17.311Z,69.29
2022-09-12T17:47:20.607Z,69.63
2022-09-12T17:52:24.667Z,69.72
2022-09-12T17:57:28.404Z,69.28
2022-09-12T18:02:33.330Z,69.59
2022-09-12T18:07:40.896Z,69.62
2022-09-12T18:12:46.871Z,69.33
2022-09-12T18:17:50.329Z,69.83
2022-09-12T18:22:56.551Z,69.73
2022-09-12T18:28:07.228Z,69.95
2022-09-12T18:33:13.228Z,70.29
2022-09-12T18:38:16.566Z,70.44
2022-09-12T18:43:20.407Z,70.00
2022-09-12T18:48:23.902Z,70.13
2022-09-12T18:53:27.244Z,70.58
2022-09-12T18:58:30.504Z,70.46
2022-09-12T19:03:33.779Z,70.52
2022-09-12T19:08:37.685Z,70.96
2022-09-12T19:13:43.948Z,70.68
2022-09-12T19:18:49.270Z,71.13
2022-09-12T19:23:56.981Z,71.46
2022-09-12T19:29:01.019Z,71.28
2022-09-12T19:34:06.170Z,71.58
2022-09-12T19:39:10.043Z,71.65
2022-09-12T19:44:13.424Z,71.56
2022-09-12T19:49:17.642Z,71.48
2022-09-12T19:54:21.822Z,71.50
2022-09-12T19:59:25.414Z,72.02
2022-09-12T20:04:29.029Z,72.08
2022-09-12T20:09:34.008Z,72.07
2022-09-12T20:14:37.160Z,72.06
2022-09-12T20:19:40.444Z,72.45
2022-09-12T20:24:43.813Z,72.04
2022-09-12T20:29:47.134Z,72.75
2022-09-12T20:34:51.596Z,72.73
2022-09-12T20:39:55.114Z,73.00
2022-09-12T20:44:59.110Z,73.14
2022-09-12T20:50:06.754Z,72.87
2022-09-12T20:55:10.570Z,73.25
2022-09-12T21:00:14.295Z,73.49
2022-09-12T21:05:18.096Z,73.48
2022-09-12T21:10:21.739Z,73.34
2022-09-12T21:15:25.000Z,73.54
2022-09-12T21:20:28.699Z,73.45
2022-09-12T21:25:32.614Z,73.43
2022-09-12T21:30:35.647Z,74.05
2022-09-12T21:35:38.869Z,73.73
2022-09-12T21:40:42.258Z,73.55
2022-09-12T21:45:46.294Z,73.59
2022-09-12T21:50:53.021Z,73.61
2022-09-12T21:56:05.172Z,73.70
2022-09-12T22:01:11.420Z,73.99
2022-09-12T22:06:19.553Z,74.10
2022-09-12T22:11:25.420Z,73.65
2022-09-12T22:16:29.232Z,73.99
2022-09-12T22:21:32.797Z,73.83
2022-09-12T22:26:44.388Z,74.16
2022-09-12T22:31:48.182Z,74.10
2022-09-12T22:36:51.461Z,74.65
2022-09-12T22:41:54.845Z,74.51
2022-09-12T22:46:58.349Z,74.13
2022-09-12T22:52:01.954Z,74.58
2022-09-12T22:57:05.543Z,73.93
2022-09-12T23:02:08.986Z,74.31
2022-09-12T23:07:13.009Z,74.24
2022-09-12T23:12:16.420Z,74.77
2022-09-12T23:17:19.676Z,74.31
2022-09-12T23:22:23.536Z,74.70
2022-09-12T23:27:27.748Z,74.83
2022-09-12T23:32:32.016Z,74.44
2022-09-12T23:37:35.417Z,74.58
2022-09-12T23:42:39.067Z,74.57
2022-09-12T23:47:42.348Z,74.86
2022-09-12T23:52:45.774Z,74.98
2022-09-12T23:57:49.641Z,75.18
